sensor_id;sensor_type;location;lat;lon;timestamp;pressure;altitude;pressure_sealevel;temperature;humidity
50696;BME280;36665;51.786;21.594;2023-07-20T00:00:45;94796.23;;;14.85;69.96
50696;BME280;36665;51.786;21.594;2023-07-20T00:09:28;94753.65;;;14.74;69.97
50696;BME280;36665;51.786;21.594;2023-07-20T00:17:52;94750.10;;;14.73;69.90
50696;BME280;36665;51.786;21.594;2023-07-20T00:26:15;94728.73;;;14.69;70.03
50696;BME280;36665;51.786;21.594;2023-07-20T00:34:38;94686.51;;;14.59;69.94
50696;BME280;36665;51.786;21.594;2023-07-20T00:43:01;94641.35;;;14.48;69.99
50696;BME280;36665;51.786;21.594;2023-07-20T00:51:25;94614.08;;;14.42;69.88
50696;BME280;36665;51.786;21.594;2023-07-20T00:59:49;94607.06;;;14.40;69.86
50696;BME280;36665;51.786;21.594;2023-07-20T01:08:27;94598.43;;;14.37;69.84
50696;BME280;36665;51.786;21.594;2023-07-20T01:16:55;94562.90;;;14.29;69.63
50696;BME280;36665;51.786;21.594;2023-07-20T01:33:42;94537.84;;;14.24;69.88
50696;BME280;36665;51.786;21.594;2023-07-20T01:42:05;94573.34;;;14.34;69.86
50696;BME280;36665;51.786;21.594;2023-07-20T01:50:29;94588.16;;;14.37;69.87
50696;BME280;36665;51.786;21.594;2023-07-20T01:58:51;94567.61;;;14.32;69.74
50696;BME280;36665;51.786;21.594;2023-07-20T02:07:15;94561.73;;;14.30;69.77
50696;BME280;36665;51.786;21.594;2023-07-20T02:15:39;94600.80;;;14.42;69.87
50696;BME280;36665;51.786;21.594;2023-07-20T02:24:04;94663.23;;;14.56;69.75
50696;BME280;36665;51.786;21.594;2023-07-20T02:32:30;94715.77;;;14.69;70.01
50696;BME280;36665;51.786;21.594;2023-07-20T02:40:56;94715.52;;;14.69;69.81
50696;BME280;36665;51.786;21.594;2023-07-20T02:49:20;94681.52;;;14.61;69.90
50696;BME280;36665;51.786;21.594;2023-07-20T02:57:43;94656.91;;;14.55;69.85
50696;BME280;36665;51.786;21.594;2023-07-20T03:06:06;94674.94;;;14.60;70.05
50696;BME280;36665;51.786;21.594;2023-07-20T03:14:32;94718.92;;;14.71;69.94
50696;BME280;36665;51.786;21.594;2023-07-20T03:22:55;94757.02;;;14.81;69.86
50696;BME280;36665;51.786;21.594;2023-07-20T03:31:18;94783.41;;;14.87;69.98
50696;BME280;36665;51.786;21.594;2023-07-20T03:39:42;94793.23;;;14.90;69.89
50696;BME280;36665;51.786;21.594;2023-07-20T03:48:07;94755.04;;;14.80;69.81
50696;BME280;36665;51.786;21.594;2023-07-20T03:56:32;94744.44;;;14.78;69.94
50696;BME280;36665;51.786;21.594;2023-07-20T04:04:58;94781.84;;;14.88;69.83
50696;BME280;36665;51.786;21.594;2023-07-20T04:13:21;94831.83;;;15.01;69.84
50696;BME280;36665;51.786;21.594;2023-07-20T04:21:44;94838.30;;;15.02;70.04
50696;BME280;36665;51.786;21.594;2023-07-20T04:30:08;94854.32;;;15.06;70.05
50696;BME280;36665;51.786;21.594;2023-07-20T04:38:33;94844.09;;;15.04;70.17
50696;BME280;36665;51.786;21.594;2023-07-20T04:47:05;94805.66;;;14.94;70.02
50696;BME280;36665;51.786;21.594;2023-07-20T04:55:32;94760.90;;;14.83;70.10
50696;BME280;36665;51.786;21.594;2023-07-20T05:03:59;94721.50;;;14.74;70.03
50696;BME280;36665;51.786;21.594;2023-07-20T05:12:22;94668.83;;;14.61;70.02
50696;BME280;36665;51.786;21.594;2023-07-20T05:20:47;94638.52;;;14.54;69.99
50696;BME280;36665;51.786;21.594;2023-07-20T05:29:10;94605.39;;;14.46;69.96
50696;BME280;36665;51.786;21.594;2023-07-20T05:37:34;94583.42;;;14.41;70.11
50696;BME280;36665;51.786;21.594;2023-07-20T05:45:57;94585.11;;;14.42;69.97
50696;BME280;36665;51.786;21.594;2023-07-20T05:54:20;94601.85;;;14.46;69.92
50696;BME280;36665;51.786;21.594;2023-07-20T06:02:43;94630.15;;;14.53;69.89
50696;BME280;36665;51.786;21.594;2023-07-20T06:11:07;94646.74;;;14.57;69.95
50696;BME280;36665;51.786;21.594;2023-07-20T06:19:30;94665.89;;;14.62;69.76
50696;BME280;36665;51.786;21.594;2023-07-20T06:27:55;94666.88;;;14.62;69.99
50696;BME280;36665;51.786;21.594;2023-07-20T06:36:18;94671.19;;;14.64;70.11
50696;BME280;36665;51.786;21.594;2023-07-20T06:44:41;94731.19;;;14.78;69.82
50696;BME280;36665;51.786;21.594;2023-07-20T06:53:05;94812.77;;;14.99;70.18
50696;BME280;36665;51.786;21.594;2023-07-20T07:01:32;94902.42;;;15.20;70.02
50696;BME280;36665;51.786;21.594;2023-07-20T07:09:55;94938.64;;;15.29;69.93
50696;BME280;36665;51.786;21.594;2023-07-20T07:18:19;95022.56;;;15.50;70.18
50696;BME280;36665;51.786;21.594;2023-07-20T07:26:43;95126.95;;;15.76;70.16
50696;BME280;36665;51.786;21.594;2023-07-20T07:35:07;95217.73;;;15.98;70.16
50696;BME280;36665;51.786;21.594;2023-07-20T07:43:30;95326.64;;;16.25;70.15
50696;BME280;36665;51.786;21.594;2023-07-20T07:51:53;95418.30;;;16.47;70.30
50696;BME280;36665;51.786;21.594;2023-07-20T08:00:17;95457.81;;;16.57;70.43
50696;BME280;36665;51.786;21.594;2023-07-20T08:08:42;95480.13;;;16.62;70.42
50696;BME280;36665;51.786;21.594;2023-07-20T08:17:08;95539.09;;;16.77;70.68
50696;BME280;36665;51.786;21.594;2023-07-20T08:25:31;95672.45;;;17.08;70.36
50696;BME280;36665;51.786;21.594;2023-07-20T08:33:54;95884.88;;;17.59;70.50
50696;BME280;36665;51.786;21.594;2023-07-20T08:42:17;96076.50;;;18.05;70.52
50696;BME280;36665;51.786;21.594;2023-07-20T08:50:41;96174.38;;;18.27;70.73
50696;BME280;36665;51.786;21.594;2023-07-20T08:59:08;96133.65;;;18.17;70.76
50696;BME280;36665;51.786;21.594;2023-07-20T09:07:31;95986.73;;;17.82;70.88
50696;BME280;36665;51.786;21.594;2023-07-20T09:15:58;95823.34;;;17.43;70.59
50696;BME280;36665;51.786;21.594;2023-07-20T09:24:21;95734.90;;;17.22;70.61
50696;BME280;36665;51.786;21.594;2023-07-20T09:32:46;95695.98;;;17.14;70.43
50696;BME280;36665;51.786;21.594;2023-07-20T09:41:14;95682.27;;;17.10;70.59
50696;BME280;36665;51.786;21.594;2023-07-20T09:49:41;95698.60;;;17.14;70.47
50696;BME280;36665;51.786;21.594;2023-07-20T09:58:08;95729.52;;;17.21;70.44
50696;BME280;36665;51.786;21.594;2023-07-20T10:06:34;95818.17;;;17.42;70.69
50696;BME280;36665;51.786;21.594;2023-07-20T10:15:13;95953.41;;;17.75;70.57
50696;BME280;36665;51.786;21.594;2023-07-20T10:23:39;96087.54;;;18.07;70.69
50696;BME280;36665;51.786;21.594;2023-07-20T10:32:02;96165.67;;;18.26;70.88
50696;BME280;36665;51.786;21.594;2023-07-20T10:40:33;96189.30;;;18.30;70.73
50696;BME280;36665;51.786;21.594;2023-07-20T10:49:02;96190.54;;;18.32;70.80
50696;BME280;36665;51.786;21.594;2023-07-20T10:57:30;96366.61;;;18.73;70.94
50696;BME280;36665;51.786;21.594;2023-07-20T11:05:53;96586.67;;;19.25;70.78
50696;BME280;36665;51.786;21.594;2023-07-20T11:14:24;96749.88;;;19.63;70.96
50696;BME280;36665;51.786;21.594;2023-07-20T11:22:48;96936.86;;;20.05;71.09
50696;BME280;36665;51.786;21.594;2023-07-20T11:31:13;97120.21;;;20.47;71.03
50696;BME280;36665;51.786;21.594;2023-07-20T11:39:39;97271.23;;;20.81;71.28
50696;BME280;36665;51.786;21.594;2023-07-20T11:48:03;97408.98;;;21.13;71.37
50696;BME280;36665;51.786;21.594;2023-07-20T11:56:26;97443.89;;;21.21;71.34
50696;BME280;36665;51.786;21.594;2023-07-20T12:04:49;97387.33;;;21.08;71.20
50696;BME280;36665;51.786;21.594;2023-07-20T12:13:12;97356.20;;;21.00;71.33
50696;BME280;36665;51.786;21.594;2023-07-20T12:21:37;97467.77;;;21.26;71.30
50696;BME280;36665;51.786;21.594;2023-07-20T12:30:00;97673.77;;;21.74;71.48
50696;BME280;36665;51.786;21.594;2023-07-20T12:38:23;97647.60;;;21.66;71.32
50696;BME280;36665;51.786;21.594;2023-07-20T12:46:46;97516.98;;;21.37;71.44
50696;BME280;36665;51.786;21.594;2023-07-20T12:55:10;97685.45;;;21.76;71.26
50696;BME280;36665;51.786;21.594;2023-07-20T13:03:33;97747.02;;;21.90;71.37
50696;BME280;36665;51.786;21.594;2023-07-20T13:11:56;97756.14;;;21.92;71.29
50696;BME280;36665;51.786;21.594;2023-07-20T13:20:19;97661.27;;;21.69;71.36
50696;BME280;36665;51.786;21.594;2023-07-20T13:28:42;97683.48;;;21.75;71.30
50696;BME280;36665;51.786;21.594;2023-07-20T13:37:05;97587.51;;;21.52;71.46
50696;BME280;36665;51.786;21.594;2023-07-20T13:45:28;97445.16;;;21.21;71.44
50696;BME280;36665;51.786;21.594;2023-07-20T13:53:53;97234.07;;;20.73;71.23
50696;BME280;36665;51.786;21.594;2023-07-20T14:02:17;97048.67;;;20.29;71.06
50696;BME280;36665;51.786;21.594;2023-07-20T14:10:44;96909.46;;;19.98;71.18
50696;BME280;36665;51.786;21.594;2023-07-20T14:19:09;96787.77;;;19.70;71.07
50696;BME280;36665;51.786;21.594;2023-07-20T14:27:33;96607.54;;;19.28;71.00
50696;BME280;36665;51.786;21.594;2023-07-20T14:35:56;96481.11;;;18.98;70.75
50696;BME280;36665;51.786;21.594;2023-07-20T14:44:19;96407.41;;;18.82;70.72
50696;BME280;36665;51.786;21.594;2023-07-20T14:52:43;96296.02;;;18.56;70.65
50696;BME280;36665;51.786;21.594;2023-07-20T15:01:09;96235.11;;;18.42;70.64
50696;BME280;36665;51.786;21.594;2023-07-20T15:09:32;96232.95;;;18.42;70.59
50696;BME280;36665;51.786;21.594;2023-07-20T15:17:56;96299.80;;;18.59;70.68
50696;BME280;36665;51.786;21.594;2023-07-20T15:26:19;96383.84;;;18.78;70.76
50696;BME280;36665;51.786;21.594;2023-07-20T15:34:46;96454.98;;;18.95;70.60
50696;BME280;36665;51.786;21.594;2023-07-20T15:43:09;96505.81;;;19.06;70.88
50696;BME280;36665;51.786;21.594;2023-07-20T15:51:36;96507.23;;;19.08;70.50
50696;BME280;36665;51.786;21.594;2023-07-20T15:59:59;96551.62;;;19.18;70.66
50696;BME280;36665;51.786;21.594;2023-07-20T16:08:33;96676.85;;;19.48;70.63
50696;BME280;36665;51.786;21.594;2023-07-20T16:16:58;96827.54;;;19.84;70.68
50696;BME280;36665;51.786;21.594;2023-07-20T16:25:24;96935.86;;;20.08;70.78
50696;BME280;36665;51.786;21.594;2023-07-20T16:33:47;96950.95;;;20.11;70.80
50696;BME280;36665;51.786;21.594;2023-07-20T16:42:10;96909.63;;;20.02;70.76
50696;BME280;36665;51.786;21.594;2023-07-20T16:50:35;96809.54;;;19.79;70.74
50696;BME280;36665;51.786;21.594;2023-07-20T16:58:59;96696.99;;;19.53;70.80
50696;BME280;36665;51.786;21.594;2023-07-20T17:07:22;96624.00;;;19.36;70.65
50696;BME280;36665;51.786;21.594;2023-07-20T17:15:49;96530.70;;;19.14;70.54
50696;BME280;36665;51.786;21.594;2023-07-20T17:24:12;96359.37;;;18.73;70.59
50696;BME280;36665;51.786;21.594;2023-07-20T17:32:55;96165.56;;;18.28;70.48
50696;BME280;36665;51.786;21.594;2023-07-20T17:41:21;96013.41;;;17.91;70.47
50696;BME280;36665;51.786;21.594;2023-07-20T17:49:46;95869.20;;;17.58;70.45
50696;BME280;36665;51.786;21.594;2023-07-20T17:58:12;95699.64;;;17.18;70.12
50696;BME280;36665;51.786;21.594;2023-07-20T18:06:35;95516.94;;;16.74;70.24
50696;BME280;36665;51.786;21.594;2023-07-20T18:14:58;95319.64;;;16.26;70.00
50696;BME280;36665;51.786;21.594;2023-07-20T18:23:21;95183.59;;;15.93;70.06
50696;BME280;36665;51.786;21.594;2023-07-20T18:31:44;95040.73;;;15.59;69.91
50696;BME280;36665;51.786;21.594;2023-07-20T18:40:07;94900.76;;;15.24;70.10
50696;BME280;36665;51.786;21.594;2023-07-20T18:48:30;94753.52;;;14.89;69.90
50696;BME280;36665;51.786;21.594;2023-07-20T18:56:54;94655.85;;;14.65;69.73
50696;BME280;36665;51.786;21.594;2023-07-20T19:05:17;94561.65;;;14.43;69.80
50696;BME280;36665;51.786;21.594;2023-07-20T19:13:40;94459.96;;;14.17;69.72
50696;BME280;36665;51.786;21.594;2023-07-20T19:22:03;94380.40;;;13.98;69.62
50696;BME280;36665;51.786;21.594;2023-07-20T19:30:29;94339.34;;;13.88;69.67
50696;BME280;36665;51.786;21.594;2023-07-20T19:38:58;94316.80;;;13.83;69.50
50696;BME280;36665;51.786;21.594;2023-07-20T19:47:26;94310.41;;;13.82;69.28
50696;BME280;36665;51.786;21.594;2023-07-20T19:55:56;94279.19;;;13.74;69.39
50696;BME280;36665;51.786;21.594;2023-07-20T20:04:22;94277.22;;;13.73;69.37
50696;BME280;36665;51.786;21.594;2023-07-20T20:12:48;94288.76;;;13.76;69.49
50696;BME280;36665;51.786;21.594;2023-07-20T20:21:12;94271.37;;;13.72;69.66
50696;BME280;36665;51.786;21.594;2023-07-20T20:29:36;94225.56;;;13.61;69.43
50696;BME280;36665;51.786;21.594;2023-07-20T20:38:00;94176.45;;;13.48;69.26
50696;BME280;36665;51.786;21.594;2023-07-20T20:46:24;94069.63;;;13.22;69.29
50696;BME280;36665;51.786;21.594;2023-07-20T20:54:48;93958.33;;;12.94;69.24
50696;BME280;36665;51.786;21.594;2023-07-20T21:03:15;93837.73;;;12.64;69.43
50696;BME280;36665;51.786;21.594;2023-07-20T21:11:40;93743.63;;;12.40;69.15
50696;BME280;36665;51.786;21.594;2023-07-20T21:28:44;93631.30;;;12.12;69.36
50696;BME280;36665;51.786;21.594;2023-07-20T21:37:07;93568.46;;;11.96;69.10
50696;BME280;36665;51.786;21.594;2023-07-20T21:45:30;93523.54;;;11.85;69.02
50696;BME280;36665;51.786;21.594;2023-07-20T21:53:53;93499.98;;;11.79;69.07
50696;BME280;36665;51.786;21.594;2023-07-20T22:02:16;93486.99;;;11.76;68.90
50696;BME280;36665;51.786;21.594;2023-07-20T22:10:39;93480.77;;;11.74;69.11
50696;BME280;36665;51.786;21.594;2023-07-20T22:19:04;93478.45;;;11.73;68.92
50696;BME280;36665;51.786;21.594;2023-07-20T22:27:27;93445.29;;;11.66;69.13
50696;BME280;36665;51.786;21.594;2023-07-20T22:35:50;93440.96;;;11.65;69.18
50696;BME280;36665;51.786;21.594;2023-07-20T22:44:13;93445.13;;;11.66;69.25
50696;BME280;36665;51.786;21.594;2023-07-20T22:52:43;93467.14;;;11.71;69.08
50696;BME280;36665;51.786;21.594;2023-07-20T23:01:09;93505.89;;;11.81;69.06
50696;BME280;36665;51.786;21.594;2023-07-20T23:09:33;93552.88;;;11.94;69.13
50696;BME280;36665;51.786;21.594;2023-07-20T23:17:56;93564.15;;;11.97;69.30
50696;BME280;36665;51.786;21.594;2023-07-20T23:26:20;93562.93;;;11.96;69.44
50696;BME280;36665;51.786;21.594;2023-07-20T23:34:45;93529.70;;;11.88;69.39
50696;BME280;36665;51.786;21.594;2023-07-20T23:43:08;93449.88;;;11.68;69.30
50696;BME280;36665;51.786;21.594;2023-07-20T23:51:31;93369.45;;;11.47;69.42
50696;BME280;36665;51.786;21.594;2023-07-20T23:59:54;93322.05;;;11.35;69.28
